createdAt,value
2022-10-06T00:01:05.590Z,13.13
2022-10-06T00:03:32.980Z,13.03
2022-10-06T00:06:04.637Z,13.01
2022-10-06T00:08:33.992Z,12.92
2022-10-06T00:11:01.196Z,12.89
2022-10-06T00:13:29.734Z,12.86
2022-10-06T00:15:57.139Z,12.87
2022-10-06T00:18:24.671Z,12.84
2022-10-06T00:20:57.332Z,12.85
2022-10-06T00:23:24.868Z,12.85
2022-10-06T00:25:52.358Z,12.81
2022-10-06T00:28:19.655Z,12.80
2022-10-06T00:30:47.508Z,12.79
2022-10-06T00:33:17.080Z,12.81
2022-10-06T00:35:45.766Z,12.76
2022-10-06T00:38:15.697Z,12.81
2022-10-06T00:40:46.170Z,13.23
2022-10-06T00:43:38.456Z,13.00
2022-10-06T00:46:07.451Z,12.92
2022-10-06T00:48:34.743Z,12.93
2022-10-06T00:51:03.026Z,12.90
2022-10-06T00:53:31.375Z,12.92
2022-10-06T00:55:58.835Z,12.94
2022-10-06T00:58:26.285Z,12.97
2022-10-06T01:00:55.451Z,12.97
2022-10-06T01:03:30.479Z,12.97
2022-10-06T01:06:02.407Z,12.98
2022-10-06T01:08:31.410Z,13.00
2022-10-06T01:10:59.999Z,13.02
2022-10-06T01:13:30.968Z,13.03
2022-10-06T01:16:12.397Z,13.03
2022-10-06T01:18:43.054Z,13.03
2022-10-06T01:21:18.455Z,13.28
2022-10-06T01:23:46.075Z,13.35
2022-10-06T01:26:15.199Z,13.17
2022-10-06T01:28:42.641Z,13.11
2022-10-06T01:31:10.305Z,13.11
2022-10-06T01:33:37.784Z,13.11
2022-10-06T01:36:05.548Z,13.12
2022-10-06T01:38:33.226Z,13.12
2022-10-06T01:41:04.031Z,13.13
2022-10-06T01:43:31.210Z,13.13
2022-10-06T01:45:59.793Z,13.11
2022-10-06T01:48:28.246Z,13.13
2022-10-06T01:50:58.497Z,13.15
2022-10-06T01:53:25.667Z,13.11
2022-10-06T01:55:58.751Z,13.08
2022-10-06T01:58:27.715Z,13.07
2022-10-06T02:00:55.309Z,13.62
2022-10-06T02:03:22.594Z,13.52
2022-10-06T02:05:53.499Z,13.26
2022-10-06T02:08:20.966Z,13.04
2022-10-06T02:10:48.639Z,12.96
2022-10-06T02:13:20.442Z,12.92
2022-10-06T02:15:48.369Z,12.89
2022-10-06T02:18:15.489Z,12.88
2022-10-06T02:20:43.960Z,12.89
2022-10-06T02:23:13.815Z,12.84
2022-10-06T02:25:40.981Z,12.83
2022-10-06T02:28:08.052Z,12.82
2022-10-06T02:30:35.827Z,12.79
2022-10-06T02:33:03.412Z,12.79
2022-10-06T02:35:30.557Z,12.73
2022-10-06T02:37:57.888Z,13.02
2022-10-06T02:40:25.221Z,13.23
2022-10-06T02:42:52.312Z,12.77
2022-10-06T02:45:21.238Z,12.62
2022-10-06T02:47:48.297Z,12.51
2022-10-06T02:50:15.447Z,12.51
2022-10-06T02:52:43.068Z,12.47
2022-10-06T02:55:11.194Z,12.43
2022-10-06T02:57:38.654Z,12.41
2022-10-06T03:00:08.545Z,12.38
2022-10-06T03:02:36.090Z,12.36
2022-10-06T03:05:05.054Z,12.32
2022-10-06T03:07:33.477Z,12.29
2022-10-06T03:10:00.658Z,12.26
2022-10-06T03:12:28.340Z,12.23
2022-10-06T03:14:55.467Z,12.18
2022-10-06T03:17:22.638Z,12.15
2022-10-06T03:19:56.039Z,12.10
2022-10-06T03:22:44.422Z,12.04
2022-10-06T03:25:12.274Z,12.02
2022-10-06T03:27:39.988Z,12.52
2022-10-06T03:30:07.990Z,12.22
2022-10-06T03:32:36.552Z,12.57
2022-10-06T03:35:04.782Z,12.80
2022-10-06T03:37:32.209Z,12.31
2022-10-06T03:40:00.427Z,12.13
2022-10-06T03:42:27.818Z,12.06
2022-10-06T03:44:55.038Z,12.02
2022-10-06T03:47:22.215Z,11.96
2022-10-06T03:49:49.418Z,11.95
2022-10-06T03:52:17.063Z,11.92
2022-10-06T03:54:44.370Z,11.88
2022-10-06T03:57:11.537Z,11.85
2022-10-06T03:59:39.029Z,11.83
2022-10-06T04:02:07.124Z,11.81
2022-10-06T04:04:38.887Z,11.78
2022-10-06T04:07:11.359Z,11.74
2022-10-06T04:09:39.400Z,11.72
2022-10-06T04:12:06.967Z,11.68
2022-10-06T04:14:37.580Z,11.68
2022-10-06T04:17:06.220Z,11.66
2022-10-06T04:19:41.158Z,11.66
2022-10-06T04:22:08.580Z,11.65
2022-10-06T04:24:35.884Z,11.65
2022-10-06T04:27:22.103Z,11.63
2022-10-06T04:29:58.646Z,11.61
2022-10-06T04:32:25.989Z,11.58
2022-10-06T04:34:54.145Z,11.56
2022-10-06T04:37:22.509Z,11.55
2022-10-06T04:39:49.885Z,11.52
2022-10-06T04:42:18.629Z,11.51
2022-10-06T04:44:45.785Z,11.47
2022-10-06T04:47:13.509Z,11.47
2022-10-06T04:49:40.522Z,11.48
2022-10-06T04:52:08.647Z,11.44
2022-10-06T04:54:38.020Z,11.44
2022-10-06T04:57:06.696Z,11.42
2022-10-06T04:59:52.122Z,11.39
2022-10-06T05:02:20.984Z,11.37
2022-10-06T05:04:52.185Z,11.33
2022-10-06T05:07:21.247Z,11.31
2022-10-06T05:09:48.390Z,11.30
2022-10-06T05:12:15.964Z,11.26
2022-10-06T05:14:43.123Z,11.29
2022-10-06T05:17:10.876Z,11.28
2022-10-06T05:19:38.747Z,11.61
2022-10-06T05:22:07.082Z,11.43
2022-10-06T05:24:35.025Z,11.25
2022-10-06T05:27:04.110Z,11.20
2022-10-06T05:29:34.429Z,11.13
2022-10-06T05:32:03.266Z,11.08
2022-10-06T05:34:31.370Z,11.03
2022-10-06T05:36:58.590Z,10.98
2022-10-06T05:39:25.572Z,10.92
2022-10-06T05:41:56.642Z,10.86
2022-10-06T05:44:24.924Z,10.85
2022-10-06T05:46:52.183Z,10.83
2022-10-06T05:49:20.020Z,10.81
2022-10-06T05:51:53.289Z,10.77
2022-10-06T05:54:25.136Z,10.71
2022-10-06T05:56:52.550Z,10.66
2022-10-06T05:59:19.765Z,10.65
2022-10-06T06:01:47.380Z,10.64
2022-10-06T06:04:32.267Z,10.61
2022-10-06T06:07:00.476Z,10.56
2022-10-06T06:09:29.008Z,10.54
2022-10-06T06:12:00.487Z,10.55
2022-10-06T06:14:59.502Z,10.56
2022-10-06T06:17:32.568Z,10.56
2022-10-06T06:20:01.639Z,10.57
2022-10-06T06:22:29.020Z,10.60
2022-10-06T06:24:56.082Z,10.62
2022-10-06T06:27:23.945Z,10.65
2022-10-06T06:29:51.109Z,10.68
2022-10-06T06:32:18.156Z,10.72
2022-10-06T06:34:46.742Z,10.75
2022-10-06T06:37:15.481Z,10.80
2022-10-06T06:39:46.303Z,10.86
2022-10-06T06:42:13.754Z,10.91
2022-10-06T06:45:01.264Z,11.00
2022-10-06T06:47:36.159Z,11.07
2022-10-06T06:50:10.531Z,11.15
2022-10-06T06:52:42.254Z,11.24
2022-10-06T06:55:12.189Z,11.56
2022-10-06T06:57:39.828Z,11.55
2022-10-06T07:00:08.497Z,11.53
2022-10-06T07:02:38.566Z,12.03
2022-10-06T07:05:06.692Z,11.80
2022-10-06T07:07:36.328Z,11.79
2022-10-06T07:10:04.716Z,11.82
2022-10-06T07:12:34.405Z,11.89
2022-10-06T07:15:20.274Z,11.96
2022-10-06T07:18:10.266Z,12.06
2022-10-06T07:20:56.759Z,12.20
2022-10-06T07:23:43.628Z,12.32
2022-10-06T07:26:15.612Z,12.46
2022-10-06T07:28:43.318Z,12.58
2022-10-06T07:31:12.396Z,12.72
2022-10-06T07:33:41.064Z,12.83
2022-10-06T07:36:09.920Z,12.93
2022-10-06T07:38:39.996Z,13.11
2022-10-06T07:41:18.787Z,13.24
2022-10-06T07:43:50.782Z,13.31
2022-10-06T07:46:19.582Z,13.45
2022-10-06T07:49:07.048Z,13.51
2022-10-06T07:51:36.360Z,13.72
2022-10-06T07:54:03.805Z,14.13
2022-10-06T07:56:41.089Z,14.25
2022-10-06T07:59:08.244Z,14.19
2022-10-06T08:01:35.385Z,14.09
2022-10-06T08:04:07.098Z,14.13
2022-10-06T08:06:35.025Z,14.32
2022-10-06T08:09:02.585Z,14.35
2022-10-06T08:11:29.880Z,14.22
2022-10-06T08:13:57.273Z,14.24
2022-10-06T08:16:30.615Z,14.33
2022-10-06T08:18:59.551Z,14.25
2022-10-06T08:21:30.086Z,14.21
2022-10-06T08:23:58.984Z,14.27
2022-10-06T08:26:28.260Z,14.23
2022-10-06T08:29:06.153Z,14.57
2022-10-06T08:31:33.513Z,14.43
2022-10-06T08:34:01.779Z,14.36
2022-10-06T08:36:31.923Z,14.41
2022-10-06T08:39:01.142Z,14.49
2022-10-06T08:41:51.272Z,14.47
2022-10-06T08:44:39.320Z,14.50
2022-10-06T08:47:14.598Z,14.79
2022-10-06T08:49:44.784Z,15.58
2022-10-06T08:52:14.534Z,15.28
2022-10-06T08:54:53.672Z,15.22
2022-10-06T08:57:30.270Z,15.25
2022-10-06T08:59:59.655Z,15.36
2022-10-06T09:02:30.560Z,15.59
2022-10-06T09:05:03.047Z,15.69
2022-10-06T09:07:37.249Z,15.89
2022-10-06T09:10:36.475Z,16.00
2022-10-06T09:13:11.755Z,16.01
2022-10-06T09:15:47.446Z,16.31
2022-10-06T09:18:49.819Z,16.38
2022-10-06T09:21:23.681Z,16.59
2022-10-06T09:23:57.122Z,16.59
2022-10-06T09:26:30.208Z,16.60
2022-10-06T09:28:58.393Z,16.72
2022-10-06T09:31:27.243Z,16.66
2022-10-06T09:34:05.799Z,16.38
2022-10-06T09:36:33.067Z,16.68
2022-10-06T09:39:00.738Z,17.19
2022-10-06T09:41:39.047Z,17.03
2022-10-06T09:44:21.791Z,17.03
2022-10-06T09:46:49.056Z,17.13
2022-10-06T09:49:21.813Z,17.31
2022-10-06T09:52:10.957Z,17.23
2022-10-06T09:54:42.153Z,17.40
2022-10-06T09:57:16.116Z,17.48
2022-10-06T09:59:45.644Z,17.50
2022-10-06T10:02:37.698Z,18.13
2022-10-06T10:05:21.163Z,18.66
2022-10-06T10:08:02.030Z,18.11
2022-10-06T10:10:31.915Z,17.98
2022-10-06T10:13:00.736Z,17.51
2022-10-06T10:15:38.474Z,17.49
2022-10-06T10:18:12.997Z,17.59
2022-10-06T10:20:55.905Z,17.49
2022-10-06T10:23:30.116Z,17.45
2022-10-06T10:26:17.811Z,17.51
2022-10-06T10:28:51.891Z,17.81
2022-10-06T10:31:55.335Z,17.63
2022-10-06T10:34:44.933Z,17.68
2022-10-06T10:37:23.743Z,17.71
2022-10-06T10:39:59.739Z,17.81
2022-10-06T10:42:37.445Z,17.71
2022-10-06T10:45:15.299Z,17.64
2022-10-06T10:47:45.670Z,17.40
2022-10-06T10:50:22.418Z,18.59
2022-10-06T10:52:52.748Z,18.24
2022-10-06T10:55:21.145Z,18.02
2022-10-06T10:57:50.549Z,17.96
2022-10-06T11:00:20.985Z,18.16
2022-10-06T11:02:48.869Z,18.19
2022-10-06T11:05:28.260Z,17.92
2022-10-06T11:08:11.218Z,18.00
2022-10-06T11:10:47.157Z,17.72
2022-10-06T11:13:28.411Z,18.49
2022-10-06T11:16:31.754Z,18.58
2022-10-06T11:19:18.251Z,18.09
2022-10-06T11:21:55.677Z,17.51
2022-10-06T11:24:31.994Z,17.32
2022-10-06T11:27:17.840Z,17.45
2022-10-06T11:29:57.298Z,17.73
2022-10-06T11:33:15.863Z,17.88
2022-10-06T11:35:45.727Z,17.35
2022-10-06T11:38:26.078Z,17.30
2022-10-06T11:41:12.717Z,17.91
2022-10-06T11:44:00.607Z,17.98
2022-10-06T11:46:35.590Z,17.25
2022-10-06T11:49:29.632Z,18.09
2022-10-06T11:52:08.369Z,17.44
2022-10-06T11:54:50.683Z,17.29
2022-10-06T11:57:25.084Z,17.17
2022-10-06T12:00:02.758Z,17.15
2022-10-06T12:02:40.636Z,17.33
2022-10-06T12:05:35.688Z,17.59
2022-10-06T12:07:58.329Z,17.55
2022-10-06T12:10:28.614Z,17.26
2022-10-06T12:19:29.074Z,17.94
2022-10-06T12:22:23.034Z,17.84
2022-10-06T12:25:02.010Z,18.09
2022-10-06T12:27:47.879Z,18.04
2022-10-06T12:30:24.852Z,17.89
2022-10-06T12:32:53.891Z,17.53
2022-10-06T12:35:32.432Z,18.63
2022-10-06T12:38:05.122Z,18.66
2022-10-06T12:40:40.474Z,18.36
2022-10-06T12:43:10.820Z,18.68
2022-10-06T12:45:46.374Z,18.39
2022-10-06T12:48:31.643Z,18.02
2022-10-06T12:51:14.012Z,17.85
2022-10-06T12:53:52.578Z,17.72
2022-10-06T12:56:28.512Z,17.63
2022-10-06T12:58:56.305Z,17.76
2022-10-06T13:01:24.188Z,17.58
2022-10-06T13:03:53.585Z,17.48
2022-10-06T13:06:23.639Z,17.64
2022-10-06T13:09:14.470Z,17.60
2022-10-06T13:11:41.545Z,17.49
2022-10-06T13:14:13.013Z,17.64
2022-10-06T13:16:43.289Z,17.93
2022-10-06T13:19:28.372Z,18.12
2022-10-06T13:21:55.567Z,18.44
2022-10-06T13:24:27.347Z,18.42
2022-10-06T13:26:54.965Z,17.83
2022-10-06T13:29:26.669Z,17.91
2022-10-06T13:31:56.011Z,18.03
2022-10-06T13:34:30.685Z,18.65
2022-10-06T13:37:00.156Z,19.49
2022-10-06T13:39:32.282Z,19.04
2022-10-06T13:42:04.346Z,18.62
2022-10-06T13:44:45.535Z,18.58
2022-10-06T13:47:18.401Z,19.48
2022-10-06T13:49:53.750Z,20.00
2022-10-06T13:52:34.036Z,19.10
2022-10-06T13:55:02.519Z,20.08
2022-10-06T13:57:35.108Z,19.64
2022-10-06T14:00:26.730Z,18.96
2022-10-06T14:03:09.637Z,18.57
2022-10-06T14:05:45.070Z,18.53
2022-10-06T14:08:12.328Z,18.92
2022-10-06T14:11:07.323Z,18.98
2022-10-06T14:13:50.105Z,19.13
2022-10-06T14:16:23.717Z,19.25
2022-10-06T14:18:58.584Z,19.25
2022-10-06T14:21:33.155Z,19.33
2022-10-06T14:24:06.160Z,19.13
2022-10-06T14:26:40.294Z,19.12
2022-10-06T14:29:07.783Z,19.35
2022-10-06T14:31:35.133Z,19.86
2022-10-06T14:34:04.615Z,18.75
2022-10-06T14:36:36.184Z,18.80
2022-10-06T14:39:05.297Z,18.93
2022-10-06T14:41:33.481Z,19.15
2022-10-06T14:44:08.745Z,18.97
2022-10-06T14:46:37.483Z,19.31
2022-10-06T14:49:09.145Z,19.48
2022-10-06T14:51:38.129Z,19.97
2022-10-06T14:54:07.551Z,19.03
2022-10-06T14:56:37.948Z,19.28
2022-10-06T14:59:08.092Z,19.83
2022-10-06T15:01:37.751Z,19.23
2022-10-06T15:04:11.749Z,19.14
2022-10-06T15:06:57.561Z,19.06
2022-10-06T15:09:24.842Z,19.21
2022-10-06T15:11:54.279Z,19.13
2022-10-06T15:14:24.967Z,18.93
2022-10-06T15:16:52.470Z,18.97
2022-10-06T15:19:19.916Z,18.91
2022-10-06T15:21:47.455Z,18.88
2022-10-06T15:24:16.745Z,18.90
2022-10-06T15:27:26.208Z,18.87
2022-10-06T15:29:59.130Z,18.63
2022-10-06T15:32:28.454Z,18.55
2022-10-06T15:34:55.817Z,18.60
2022-10-06T15:37:23.016Z,18.65
2022-10-06T15:39:52.283Z,18.63
2022-10-06T15:42:24.235Z,18.60
2022-10-06T15:44:52.048Z,19.47
2022-10-06T15:47:19.409Z,20.08
2022-10-06T15:49:47.277Z,19.00
2022-10-06T15:52:14.917Z,18.76
2022-10-06T15:54:42.526Z,18.71
2022-10-06T15:57:15.071Z,18.74
2022-10-06T15:59:44.272Z,20.00
2022-10-06T16:02:17.459Z,19.48
2022-10-06T16:04:56.297Z,18.90
2022-10-06T16:07:23.719Z,18.75
2022-10-06T16:09:52.131Z,18.71
2022-10-06T16:12:22.042Z,18.60
2022-10-06T16:14:49.724Z,18.60
2022-10-06T16:17:17.268Z,18.50
2022-10-06T16:19:44.816Z,18.43
2022-10-06T16:22:15.469Z,18.43
2022-10-06T16:24:43.015Z,19.79
2022-10-06T16:27:14.885Z,19.50
2022-10-06T16:29:42.004Z,18.67
2022-10-06T16:32:09.314Z,18.46
2022-10-06T16:34:36.828Z,18.36
2022-10-06T16:37:04.081Z,18.23
2022-10-06T16:39:31.551Z,18.12
2022-10-06T16:41:58.793Z,18.01
2022-10-06T16:44:26.061Z,17.89
2022-10-06T16:46:53.286Z,17.75
2022-10-06T16:49:21.324Z,18.60
2022-10-06T16:51:49.574Z,18.41
2022-10-06T16:54:19.876Z,17.62
2022-10-06T16:56:52.104Z,17.27
2022-10-06T16:59:21.320Z,17.07
2022-10-06T17:01:50.392Z,16.86
2022-10-06T17:04:25.792Z,16.66
2022-10-06T17:06:57.180Z,16.52
2022-10-06T17:09:27.182Z,16.38
2022-10-06T17:12:02.567Z,16.27
2022-10-06T17:14:32.004Z,16.10
2022-10-06T17:16:59.572Z,15.96
2022-10-06T17:19:28.937Z,15.81
2022-10-06T17:21:59.336Z,15.64
2022-10-06T17:24:28.862Z,15.53
2022-10-06T17:26:57.811Z,16.56
2022-10-06T17:29:26.198Z,15.75
2022-10-06T17:31:59.422Z,15.28
2022-10-06T17:34:33.590Z,15.07
2022-10-06T17:37:02.260Z,14.79
2022-10-06T17:39:30.349Z,14.70
2022-10-06T17:41:58.085Z,14.50
2022-10-06T17:44:29.369Z,14.34
2022-10-06T17:47:00.900Z,14.21
2022-10-06T17:49:30.697Z,14.07
2022-10-06T17:51:58.238Z,13.95
2022-10-06T17:54:27.401Z,13.83
2022-10-06T17:56:56.931Z,13.74
2022-10-06T17:59:30.593Z,13.64
2022-10-06T18:02:00.832Z,13.53
2022-10-06T18:04:29.123Z,13.45
2022-10-06T18:06:57.615Z,13.33
2022-10-06T18:09:25.523Z,13.22
2022-10-06T18:11:56.874Z,13.10
2022-10-06T18:14:30.571Z,13.01
2022-10-06T18:17:00.939Z,12.91
2022-10-06T18:19:33.823Z,12.84
2022-10-06T18:22:13.145Z,13.48
2022-10-06T18:24:40.450Z,13.19
2022-10-06T18:27:08.475Z,12.80
2022-10-06T18:29:38.064Z,12.64
2022-10-06T18:37:42.319Z,12.28
2022-10-06T18:40:11.406Z,12.22
2022-10-06T18:42:39.679Z,12.12
2022-10-06T18:45:27.563Z,12.04
2022-10-06T18:48:15.702Z,12.00
2022-10-06T18:50:42.894Z,11.95
2022-10-06T18:53:10.646Z,11.87
2022-10-06T18:55:37.947Z,11.82
2022-10-06T18:58:05.443Z,11.73
2022-10-06T19:00:33.503Z,11.72
2022-10-06T19:03:01.034Z,11.66
2022-10-06T19:05:28.211Z,11.57
2022-10-06T19:07:56.048Z,12.19
2022-10-06T19:10:23.335Z,11.98
2022-10-06T19:12:50.572Z,11.66
2022-10-06T19:15:20.718Z,11.51
2022-10-06T19:17:49.844Z,11.44
2022-10-06T19:20:18.795Z,11.36
2022-10-06T19:22:48.011Z,11.31
2022-10-06T19:25:19.078Z,11.28
2022-10-06T19:27:46.757Z,11.22
2022-10-06T19:30:14.894Z,11.19
2022-10-06T19:32:48.694Z,11.16
2022-10-06T19:35:16.433Z,11.11
2022-10-06T19:37:43.773Z,11.08
2022-10-06T19:40:11.629Z,10.98
2022-10-06T19:42:51.285Z,10.94
2022-10-06T19:45:19.315Z,10.77
2022-10-06T19:47:47.360Z,10.69
2022-10-06T19:50:17.324Z,10.63
2022-10-06T19:52:45.465Z,10.59
2022-10-06T19:55:12.997Z,10.52
2022-10-06T19:57:41.438Z,10.48
2022-10-06T20:00:10.536Z,10.44
2022-10-06T20:02:43.194Z,10.39
2022-10-06T20:05:16.173Z,10.32
2022-10-06T20:07:45.905Z,10.26
2022-10-06T20:10:14.383Z,10.20
2022-10-06T20:12:42.106Z,10.16
2022-10-06T20:15:10.225Z,10.11
2022-10-06T20:17:37.713Z,10.07
2022-10-06T20:20:05.436Z,10.03
2022-10-06T20:22:33.108Z,10.01
2022-10-06T20:25:02.090Z,9.99
2022-10-06T20:27:29.508Z,9.97
2022-10-06T20:29:58.301Z,9.93
2022-10-06T20:32:25.516Z,9.90
2022-10-06T20:34:53.260Z,9.89
2022-10-06T20:37:20.584Z,9.86
2022-10-06T20:40:06.216Z,9.83
2022-10-06T20:42:33.854Z,9.80
2022-10-06T20:45:01.152Z,9.77
2022-10-06T20:47:29.984Z,9.76
2022-10-06T20:49:57.200Z,9.74
2022-10-06T20:52:24.769Z,9.72
2022-10-06T20:54:52.264Z,9.70
2022-10-06T20:57:19.856Z,9.67
2022-10-06T20:59:47.237Z,9.66
2022-10-06T21:02:14.742Z,9.64
2022-10-06T21:04:45.413Z,9.61
2022-10-06T21:07:13.090Z,9.57
2022-10-06T21:09:40.701Z,9.58
2022-10-06T21:12:08.336Z,9.56
2022-10-06T21:14:36.517Z,9.54
2022-10-06T21:17:04.550Z,9.55
2022-10-06T21:19:34.502Z,9.51
2022-10-06T21:22:02.257Z,9.49
2022-10-06T21:24:29.686Z,9.50
2022-10-06T21:26:57.297Z,9.46
2022-10-06T21:29:24.671Z,9.44
2022-10-06T21:31:52.063Z,9.41
2022-10-06T21:34:19.718Z,9.40
2022-10-06T21:36:47.127Z,9.38
2022-10-06T21:39:17.092Z,9.35
2022-10-06T21:41:44.504Z,9.33
2022-10-06T21:44:17.215Z,9.32
2022-10-06T21:46:55.717Z,9.29
2022-10-06T21:49:25.523Z,9.26
2022-10-06T21:51:55.782Z,9.26
2022-10-06T21:54:24.381Z,9.25
2022-10-06T21:56:51.864Z,9.23
2022-10-06T21:59:19.278Z,9.22
2022-10-06T22:01:50.316Z,9.19
2022-10-06T22:04:18.572Z,9.17
2022-10-06T22:06:50.246Z,9.16
2022-10-06T22:09:20.843Z,9.13
2022-10-06T22:11:48.974Z,9.13
2022-10-06T22:14:21.984Z,9.12
2022-10-06T22:16:49.424Z,9.11
2022-10-06T22:19:18.314Z,9.08
2022-10-06T22:21:48.777Z,9.05
2022-10-06T22:24:19.211Z,9.06
2022-10-06T22:26:47.054Z,9.04
2022-10-06T22:29:16.771Z,9.03
2022-10-06T22:31:45.689Z,9.00
2022-10-06T22:34:15.392Z,8.98
2022-10-06T22:36:42.911Z,8.98
2022-10-06T22:39:10.780Z,8.94
2022-10-06T22:41:38.898Z,8.93
2022-10-06T22:44:06.654Z,8.92
2022-10-06T22:46:36.126Z,8.95
2022-10-06T22:49:05.032Z,8.93
2022-10-06T22:51:32.922Z,8.92
2022-10-06T22:54:00.736Z,8.92
2022-10-06T22:56:29.808Z,8.88
2022-10-06T22:59:00.152Z,8.88
2022-10-06T23:01:29.628Z,8.88
2022-10-06T23:03:57.536Z,8.87
2022-10-06T23:06:25.196Z,8.86
2022-10-06T23:08:55.122Z,8.85
2022-10-06T23:11:23.069Z,8.83
2022-10-06T23:13:51.183Z,8.83
2022-10-06T23:16:19.957Z,8.83
2022-10-06T23:18:48.275Z,8.83
2022-10-06T23:21:24.528Z,8.84
2022-10-06T23:23:55.753Z,8.83
2022-10-06T23:26:23.769Z,8.82
2022-10-06T23:28:56.325Z,8.83
2022-10-06T23:31:24.967Z,8.80
2022-10-06T23:33:52.455Z,8.77
2022-10-06T23:36:20.167Z,8.78
2022-10-06T23:38:47.658Z,8.78
2022-10-06T23:41:15.785Z,8.78
2022-10-06T23:43:43.033Z,8.78
2022-10-06T23:46:10.627Z,8.76
2022-10-06T23:48:37.886Z,8.75
2022-10-06T23:51:11.880Z,8.76
2022-10-06T23:53:39.454Z,8.74
2022-10-06T23:56:07.716Z,8.74
2022-10-06T23:58:39.682Z,8.72
